Time;durP1;ratioP1;P1;durP2;ratioP2;P2;SDS_P1;SDS_P2;PMS_P1;PMS_P2;Temp;Humidity;BMP_temperature;BMP_pressure;BME280_temperature;BME280_humidity;BME280_pressure;Samples;Min_cycle;Max_cycle;Signal;HPM_P1;HPM_P2
2024/01/31 00:02:41;;;;;;;20.67;15.23;;;8.80;99.90;;;;;;5057801;28;20877;-74
2024/01/31 00:05:26;;;;;;;18.47;12.30;;;9.00;99.90;;;;;;5060953;28;20851;-74
2024/01/31 00:08:12;;;;;;;14.90;11.80;;;9.00;99.90;;;;;;5054677;28;20454;-74
2024/01/31 00:10:57;;;;;;;17.50;13.77;;;9.10;99.90;;;;;;5053048;28;20426;-74
2024/01/31 00:13:43;;;;;;;23.57;14.17;;;9.10;99.90;;;;;;5062822;28;20432;-74
2024/01/31 00:16:30;;;;;;;19.43;12.17;;;9.10;99.90;;;;;;5063892;28;20797;-74
2024/01/31 00:19:16;;;;;;;16.13;12.97;;;9.20;99.90;;;;;;5051529;28;20431;-74
2024/01/31 00:22:01;;;;;;;15.97;11.63;;;9.10;99.90;;;;;;5059791;28;20968;-74
2024/01/31 00:24:47;;;;;;;14.43;11.63;;;9.10;99.90;;;;;;5067663;28;21019;-74
2024/01/31 00:27:33;;;;;;;18.43;12.57;;;9.10;99.90;;;;;;5064090;28;20452;-74
2024/01/31 00:30:18;;;;;;;17.73;11.10;;;9.10;99.90;;;;;;5054463;28;20438;-74
2024/01/31 00:33:05;;;;;;;14.43;11.17;;;9.10;99.90;;;;;;5054607;28;20841;-74
2024/01/31 00:35:52;;;;;;;21.83;13.93;;;9.10;99.90;;;;;;5063463;28;20426;-74
2024/01/31 00:38:37;;;;;;;16.40;12.70;;;9.10;99.90;;;;;;5064144;28;20842;-74
2024/01/31 00:41:23;;;;;;;19.07;12.67;;;9.10;99.90;;;;;;5055868;28;20781;-74
2024/01/31 00:44:08;;;;;;;16.30;12.73;;;9.10;99.90;;;;;;5049537;28;20437;-74
2024/01/31 00:46:54;;;;;;;32.10;15.10;;;9.10;99.90;;;;;;5056907;28;20432;-74
2024/01/31 00:49:41;;;;;;;17.53;14.70;;;9.10;99.90;;;;;;5058371;28;20512;-74
2024/01/31 00:52:27;;;;;;;16.73;13.00;;;9.20;99.90;;;;;;5056416;28;21117;-74
2024/01/31 00:55:12;;;;;;;19.33;14.43;;;9.20;99.90;;;;;;5062713;28;20429;-74
2024/01/31 00:57:58;;;;;;;21.07;13.60;;;9.20;99.90;;;;;;5062336;28;20508;-74
2024/01/31 01:00:43;;;;;;;21.53;13.90;;;9.20;99.90;;;;;;5065697;28;20442;-74
2024/01/31 01:03:29;;;;;;;16.00;12.70;;;9.30;99.90;;;;;;5057836;28;20435;-74
2024/01/31 01:06:15;;;;;;;18.40;12.97;;;9.30;99.90;;;;;;5051799;28;20954;-74
2024/01/31 01:09:01;;;;;;;27.53;13.70;;;9.30;99.90;;;;;;5053620;28;20446;-74
2024/01/31 01:11:46;;;;;;;17.20;12.87;;;9.40;99.90;;;;;;5057436;28;20965;-74
2024/01/31 01:14:32;;;;;;;15.03;13.03;;;9.40;99.90;;;;;;5057045;28;20486;-74
2024/01/31 01:17:17;;;;;;;21.03;13.63;;;9.40;99.90;;;;;;5052013;28;20790;-73
2024/01/31 01:20:03;;;;;;;17.90;13.17;;;9.50;99.90;;;;;;5052520;28;20425;-74
2024/01/31 01:22:50;;;;;;;17.87;13.43;;;9.50;99.90;;;;;;5064194;28;20567;-74
2024/01/31 01:25:36;;;;;;;18.53;12.00;;;9.50;99.90;;;;;;5055835;28;21047;-74
2024/01/31 01:28:21;;;;;;;22.57;13.47;;;9.60;99.90;;;;;;5062502;28;20586;-74
2024/01/31 01:31:07;;;;;;;19.70;13.30;;;9.50;99.90;;;;;;5056989;28;20430;-74
2024/01/31 01:33:53;;;;;;;24.93;13.40;;;9.60;99.90;;;;;;5055288;28;20425;-74
2024/01/31 01:36:38;;;;;;;23.40;14.57;;;9.60;99.90;;;;;;5054425;28;20860;-74
2024/01/31 01:39:26;;;;;;;19.57;13.60;;;9.70;99.90;;;;;;5066920;22;20462;-74
2024/01/31 01:42:11;;;;;;;18.40;12.33;;;9.70;99.90;;;;;;5043993;28;20424;-71
2024/01/31 01:44:57;;;;;;;18.00;12.00;;;9.70;99.90;;;;;;5029624;28;20487;-71
2024/01/31 01:47:48;;;;;;;19.50;13.07;;;9.70;99.90;;;;;;5037916;28;20566;-70
2024/01/31 01:50:34;;;;;;;20.93;13.33;;;9.60;99.90;;;;;;5037224;28;20574;-72
2024/01/31 01:53:19;;;;;;;19.20;13.70;;;9.60;99.90;;;;;;5035018;28;20823;-70
2024/01/31 01:56:09;;;;;;;16.07;13.23;;;9.50;99.90;;;;;;5038418;28;20431;-72
2024/01/31 01:58:56;;;;;;;18.97;12.90;;;9.50;99.90;;;;;;5043232;28;20854;-72
2024/01/31 02:01:43;;;;;;;23.73;16.90;;;9.50;99.90;;;;;;5038311;28;20432;-71
2024/01/31 02:04:29;;;;;;;21.47;16.23;;;9.50;99.90;;;;;;5043811;28;20507;-72
2024/01/31 02:07:15;;;;;;;25.27;16.87;;;9.50;99.90;;;;;;5032172;28;20470;-72
2024/01/31 02:10:01;;;;;;;28.13;18.20;;;9.50;99.90;;;;;;5040846;28;20514;-71
2024/01/31 02:12:48;;;;;;;20.00;16.27;;;9.50;99.90;;;;;;5038050;28;20400;-72
2024/01/31 02:15:33;;;;;;;26.47;17.30;;;9.40;99.90;;;;;;5037788;28;20504;-72
2024/01/31 02:18:19;;;;;;;27.27;18.13;;;9.40;99.90;;;;;;5032250;28;20458;-72
2024/01/31 02:21:05;;;;;;;26.40;18.60;;;9.40;99.90;;;;;;5036279;28;20577;-72
2024/01/31 02:23:52;;;;;;;26.53;17.97;;;9.30;99.90;;;;;;5033095;28;20421;-72
2024/01/31 02:26:37;;;;;;;22.80;17.50;;;9.30;99.90;;;;;;5050211;28;20431;-72
2024/01/31 02:29:23;;;;;;;25.00;16.20;;;9.30;99.90;;;;;;5033230;28;20589;-70
2024/01/31 02:32:09;;;;;;;28.00;16.27;;;9.30;99.90;;;;;;5035033;28;20430;-72
2024/01/31 02:34:54;;;;;;;23.63;16.87;;;9.30;99.90;;;;;;5046559;28;20419;-72
2024/01/31 02:37:43;;;;;;;21.30;16.47;;;9.20;99.90;;;;;;5043137;28;20459;-71
2024/01/31 02:40:30;;;;;;;28.10;18.83;;;9.10;99.90;;;;;;5040333;28;20505;-71
2024/01/31 02:43:16;;;;;;;23.57;15.57;;;9.10;99.90;;;;;;5031445;28;20817;-72
2024/01/31 02:46:02;;;;;;;22.83;16.60;;;9.00;99.90;;;;;;5030550;28;20524;-72
2024/01/31 02:48:48;;;;;;;21.20;17.37;;;8.90;99.90;;;;;;5041768;28;20848;-72
2024/01/31 02:51:34;;;;;;;24.07;17.20;;;8.80;99.90;;;;;;5029275;28;20428;-72
2024/01/31 02:54:20;;;;;;;25.20;17.47;;;8.80;99.90;;;;;;5035503;28;20436;-71
2024/01/31 02:57:07;;;;;;;23.10;18.10;;;8.80;99.90;;;;;;5030209;28;20977;-71
2024/01/31 02:59:52;;;;;;;24.37;17.00;;;8.80;99.90;;;;;;5048858;28;20442;-72
2024/01/31 03:02:38;;;;;;;17.57;14.20;;;8.80;99.90;;;;;;5044731;28;20439;-71
2024/01/31 03:05:23;;;;;;;23.30;16.93;;;8.70;99.90;;;;;;5044559;28;21059;-72
2024/01/31 03:08:09;;;;;;;38.67;17.97;;;8.70;99.90;;;;;;5034691;28;20420;-70
2024/01/31 03:10:54;;;;;;;33.03;15.50;;;8.60;99.90;;;;;;5037620;28;20767;-72
2024/01/31 03:13:42;;;;;;;19.27;14.70;;;8.60;99.90;;;;;;5043917;28;20899;-71
2024/01/31 03:16:27;;;;;;;22.37;14.70;;;8.60;99.90;;;;;;5044691;28;20570;-71
2024/01/31 03:19:13;;;;;;;20.63;15.50;;;8.60;99.90;;;;;;5033936;28;20540;-71
2024/01/31 03:21:59;;;;;;;22.33;16.60;;;8.60;99.90;;;;;;5047085;28;20512;-72
2024/01/31 03:24:44;;;;;;;21.10;15.80;;;8.50;99.90;;;;;;5042352;28;20405;-72
2024/01/31 03:27:30;;;;;;;22.90;16.47;;;8.50;99.90;;;;;;5036757;28;20453;-72
2024/01/31 03:30:17;;;;;;;19.63;15.33;;;8.50;99.90;;;;;;5036046;28;20431;-71
2024/01/31 03:33:03;;;;;;;26.23;18.53;;;8.50;99.90;;;;;;5040351;28;21058;-72
2024/01/31 03:35:49;;;;;;;24.63;16.83;;;8.50;99.90;;;;;;5029252;28;20390;-71
2024/01/31 03:38:34;;;;;;;23.87;16.97;;;8.50;99.90;;;;;;5037357;28;20436;-71
2024/01/31 03:41:20;;;;;;;19.90;14.60;;;8.40;99.90;;;;;;5032251;28;20524;-71
2024/01/31 03:44:05;;;;;;;20.47;14.63;;;8.40;99.90;;;;;;5035284;28;20700;-72
2024/01/31 03:46:52;;;;;;;27.30;17.03;;;8.30;99.90;;;;;;5032520;28;20548;-72
2024/01/31 03:49:38;;;;;;;24.60;16.67;;;8.30;99.90;;;;;;5039876;28;20979;-70
2024/01/31 03:52:25;;;;;;;22.57;17.07;;;8.30;99.90;;;;;;5032469;28;20425;-72
2024/01/31 03:55:11;;;;;;;22.13;17.47;;;8.20;99.90;;;;;;5037861;28;20515;-71
2024/01/31 03:57:56;;;;;;;19.87;14.37;;;8.20;99.90;;;;;;5037495;28;21048;-72
2024/01/31 04:00:42;;;;;;;19.33;16.80;;;8.10;99.90;;;;;;5030718;28;20791;-72
2024/01/31 04:03:29;;;;;;;21.67;16.10;;;8.20;99.90;;;;;;5039306;28;20847;-72
2024/01/31 04:06:14;;;;;;;22.23;14.70;;;8.20;99.90;;;;;;5031946;28;21021;-71
2024/01/31 04:09:00;;;;;;;19.97;15.93;;;8.10;99.90;;;;;;5041643;28;20960;-72
2024/01/31 04:11:46;;;;;;;21.57;15.70;;;8.10;99.90;;;;;;5044428;28;20442;-72
2024/01/31 04:14:31;;;;;;;26.50;19.40;;;8.10;99.90;;;;;;5037954;28;20539;-72
2024/01/31 04:17:17;;;;;;;25.80;18.13;;;8.10;99.90;;;;;;5037757;28;20423;-72
2024/01/31 04:20:06;;;;;;;23.33;16.43;;;8.10;99.90;;;;;;5037051;28;20447;-71
2024/01/31 04:22:51;;;;;;;21.80;15.50;;;8.20;99.90;;;;;;5038908;28;20481;-69
2024/01/31 04:25:37;;;;;;;25.07;18.10;;;8.10;99.90;;;;;;5042009;28;20445;-71
2024/01/31 04:28:23;;;;;;;22.47;16.83;;;8.10;99.90;;;;;;5039102;28;20968;-72
2024/01/31 04:31:14;;;;;;;25.13;17.70;;;8.10;99.90;;;;;;5036644;28;20427;-72
2024/01/31 04:33:59;;;;;;;23.80;16.97;;;8.10;99.90;;;;;;5032676;28;20581;-71
2024/01/31 04:36:46;;;;;;;22.20;17.43;;;8.10;99.90;;;;;;5043368;28;20474;-71
2024/01/31 04:39:32;;;;;;;22.47;16.43;;;8.10;99.90;;;;;;5041004;28;20449;-71
2024/01/31 04:42:17;;;;;;;21.27;16.40;;;8.10;99.90;;;;;;5035908;28;20923;-72
2024/01/31 04:45:04;;;;;;;26.20;16.60;;;8.00;99.90;;;;;;5044228;28;20991;-70
2024/01/31 04:47:49;;;;;;;20.33;14.77;;;8.00;99.90;;;;;;5040597;28;20408;-72
2024/01/31 04:50:35;;;;;;;21.87;16.60;;;8.00;99.90;;;;;;5043599;28;20483;-72
2024/01/31 04:53:22;;;;;;;22.17;16.67;;;7.90;99.90;;;;;;5047150;28;20500;-72
2024/01/31 04:56:08;;;;;;;20.27;16.20;;;7.90;99.90;;;;;;5041381;28;20868;-72
2024/01/31 04:58:54;;;;;;;18.27;14.03;;;8.00;99.90;;;;;;5044490;28;20794;-70
2024/01/31 05:01:39;;;;;;;17.30;14.13;;;8.00;99.90;;;;;;5048119;28;20410;-70
2024/01/31 05:04:25;;;;;;;20.20;15.37;;;7.90;99.90;;;;;;5048317;28;20423;-72
2024/01/31 05:07:11;;;;;;;24.20;15.40;;;7.80;99.90;;;;;;5045160;28;20448;-72
2024/01/31 05:09:58;;;;;;;17.13;13.93;;;7.90;99.90;;;;;;5039979;28;20450;-72
2024/01/31 05:12:43;;;;;;;23.37;15.03;;;7.80;99.90;;;;;;5042619;28;20481;-72
2024/01/31 05:15:30;;;;;;;21.37;14.70;;;7.80;99.90;;;;;;5038723;28;20402;-72
2024/01/31 05:18:16;;;;;;;24.80;15.10;;;7.80;99.90;;;;;;5034511;28;21081;-71
2024/01/31 05:21:02;;;;;;;19.50;14.47;;;7.80;99.90;;;;;;5049260;28;20477;-70
2024/01/31 05:23:48;;;;;;;18.50;14.43;;;7.80;99.90;;;;;;5047204;28;20544;-71
2024/01/31 05:26:35;;;;;;;23.50;14.17;;;7.80;99.90;;;;;;5043950;28;20483;-72
2024/01/31 05:29:20;;;;;;;23.10;14.20;;;7.80;99.90;;;;;;5036555;28;20564;-70
2024/01/31 05:32:07;;;;;;;22.67;14.63;;;7.70;99.90;;;;;;5042949;28;20913;-72
2024/01/31 05:34:52;;;;;;;23.60;14.40;;;7.70;99.90;;;;;;5042891;28;20546;-70
2024/01/31 05:37:38;;;;;;;21.00;13.27;;;7.70;99.90;;;;;;5047712;28;20440;-71
2024/01/31 05:40:24;;;;;;;17.80;12.40;;;7.70;99.90;;;;;;5041100;28;20800;-72
2024/01/31 05:43:11;;;;;;;16.10;12.90;;;7.70;99.90;;;;;;5040706;28;20409;-72
2024/01/31 05:45:57;;;;;;;19.63;12.80;;;7.60;99.90;;;;;;5048605;28;20511;-71
2024/01/31 05:48:43;;;;;;;14.40;12.23;;;7.60;99.90;;;;;;5038556;28;20789;-71
2024/01/31 05:51:29;;;;;;;20.17;13.10;;;7.50;99.90;;;;;;5039529;28;20797;-72
2024/01/31 05:54:15;;;;;;;16.43;12.60;;;7.50;99.90;;;;;;5040242;28;20772;-72
2024/01/31 05:57:00;;;;;;;18.97;14.17;;;7.40;99.90;;;;;;5032227;28;20419;-72
2024/01/31 05:59:47;;;;;;;23.23;13.63;;;7.40;99.90;;;;;;5047169;28;20582;-71
2024/01/31 06:02:33;;;;;;;19.80;12.20;;;7.50;99.90;;;;;;5043652;28;20428;-72
2024/01/31 06:05:18;;;;;;;20.90;12.50;;;7.30;99.90;;;;;;5036406;28;20801;-72
2024/01/31 06:08:05;;;;;;;15.10;11.70;;;7.30;99.90;;;;;;5045637;28;20447;-72
2024/01/31 06:10:53;;;;;;;15.30;11.87;;;7.30;99.90;;;;;;5043456;28;20473;-72
2024/01/31 06:13:39;;;;;;;23.53;12.70;;;7.30;99.90;;;;;;5041170;28;20910;-72
2024/01/31 06:16:26;;;;;;;18.27;12.43;;;7.30;99.90;;;;;;5036653;28;20428;-71
2024/01/31 06:19:11;;;;;;;22.23;12.30;;;7.30;99.90;;;;;;5032821;28;20450;-72
2024/01/31 06:21:57;;;;;;;20.43;12.73;;;7.20;99.90;;;;;;5040306;28;20416;-71
2024/01/31 06:24:42;;;;;;;20.40;13.30;;;7.20;99.90;;;;;;5045446;28;20454;-72
2024/01/31 06:27:28;;;;;;;17.20;12.17;;;7.10;99.90;;;;;;5041382;28;20531;-71
2024/01/31 06:30:19;;;;;;;20.90;13.40;;;7.10;99.90;;;;;;5040673;28;20556;-71
2024/01/31 06:33:07;;;;;;;20.57;13.80;;;7.10;99.90;;;;;;5046920;28;20948;-72
2024/01/31 06:35:52;;;;;;;17.03;12.17;;;7.00;99.90;;;;;;5043772;28;20472;-72
2024/01/31 06:38:38;;;;;;;18.93;11.33;;;7.00;99.90;;;;;;5040889;28;20432;-71
2024/01/31 06:41:24;;;;;;;13.23;10.43;;;7.00;99.90;;;;;;5035704;28;21225;-72
2024/01/31 06:44:10;;;;;;;17.07;11.10;;;6.90;99.90;;;;;;5039512;28;21058;-72
2024/01/31 06:46:55;;;;;;;15.83;10.83;;;6.80;99.90;;;;;;5028283;28;20473;-73
2024/01/31 06:49:42;;;;;;;19.43;12.47;;;6.80;99.90;;;;;;5042167;28;20454;-72
2024/01/31 06:52:28;;;;;;;16.23;11.43;;;6.80;99.90;;;;;;5043600;28;20427;-72
2024/01/31 06:55:14;;;;;;;15.10;11.07;;;6.70;99.90;;;;;;5040397;28;20920;-72
2024/01/31 06:57:59;;;;;;;19.10;13.50;;;6.70;99.90;;;;;;5033858;28;20418;-72
2024/01/31 07:00:45;;;;;;;18.80;11.83;;;6.60;99.90;;;;;;5042178;28;20560;-72
2024/01/31 07:03:32;;;;;;;16.90;12.97;;;6.60;99.90;;;;;;5043825;28;20399;-71
2024/01/31 07:06:19;;;;;;;14.73;11.60;;;6.60;99.90;;;;;;5046638;28;20458;-71
2024/01/31 07:09:04;;;;;;;15.97;10.37;;;6.50;99.90;;;;;;5042575;28;20416;-72
2024/01/31 07:11:50;;;;;;;16.97;12.07;;;6.30;99.90;;;;;;5032184;28;20435;-72
2024/01/31 07:14:35;;;;;;;19.67;12.53;;;6.20;99.90;;;;;;5040101;28;20869;-72
2024/01/31 07:17:22;;;;;;;15.77;11.30;;;6.20;99.90;;;;;;5042306;28;20981;-71
2024/01/31 07:20:09;;;;;;;15.90;11.53;;;6.20;99.90;;;;;;5034223;28;21075;-72
2024/01/31 07:22:55;;;;;;;12.67;9.97;;;6.10;99.90;;;;;;5046895;28;20488;-71
2024/01/31 07:25:41;;;;;;;16.43;12.23;;;6.10;99.90;;;;;;5035028;28;20435;-70
2024/01/31 07:28:27;;;;;;;18.07;11.50;;;6.00;99.90;;;;;;5034290;28;20489;-72
2024/01/31 07:31:13;;;;;;;14.60;10.43;;;6.10;99.90;;;;;;5044379;28;20404;-71
2024/01/31 07:33:58;;;;;;;19.43;12.50;;;6.00;99.90;;;;;;5041901;28;20434;-72
2024/01/31 07:36:44;;;;;;;19.33;12.57;;;6.00;99.90;;;;;;5043777;28;20430;-72
2024/01/31 07:39:32;;;;;;;17.50;12.60;;;6.10;99.90;;;;;;5041910;28;20917;-70
2024/01/31 07:42:18;;;;;;;16.53;11.60;;;6.20;99.90;;;;;;5041059;28;20460;-70
2024/01/31 07:45:04;;;;;;;16.00;12.33;;;6.20;99.90;;;;;;5040249;28;20429;-70
2024/01/31 07:47:50;;;;;;;20.60;12.10;;;6.20;99.90;;;;;;5039193;28;20484;-70
2024/01/31 07:50:36;;;;;;;20.30;13.10;;;6.20;99.90;;;;;;5042695;28;20427;-70
2024/01/31 07:53:21;;;;;;;22.60;13.27;;;6.40;99.90;;;;;;5046237;28;20996;-70
2024/01/31 07:56:08;;;;;;;18.40;13.10;;;6.20;99.90;;;;;;5029918;28;20995;-71
2024/01/31 07:58:54;;;;;;;19.47;12.20;;;6.30;99.90;;;;;;5032768;28;20470;-70
2024/01/31 08:01:40;;;;;;;63.60;16.40;;;6.40;99.90;;;;;;5038497;28;20488;-70
2024/01/31 08:04:25;;;;;;;22.13;14.80;;;6.40;99.90;;;;;;5033106;28;20451;-70
2024/01/31 08:07:12;;;;;;;34.77;16.30;;;6.40;99.90;;;;;;5036529;28;20500;-70
2024/01/31 08:09:58;;;;;;;57.33;17.07;;;6.50;99.90;;;;;;5035973;28;20479;-70
2024/01/31 08:12:46;;;;;;;34.40;15.70;;;6.50;99.90;;;;;;5047497;28;20568;-70
2024/01/31 08:15:34;;;;;;;58.83;18.60;;;6.60;99.90;;;;;;5043655;28;20797;-70
2024/01/31 08:18:20;;;;;;;26.23;17.50;;;6.60;99.90;;;;;;5045926;28;20450;-69
2024/01/31 08:21:07;;;;;;;27.83;18.93;;;6.70;99.90;;;;;;5047849;28;20422;-70
2024/01/31 08:23:52;;;;;;;31.03;18.23;;;6.80;99.90;;;;;;5037582;28;20445;-70
2024/01/31 08:26:38;;;;;;;104.00;21.00;;;6.90;99.90;;;;;;5044418;28;20474;-69
2024/01/31 08:29:25;;;;;;;31.87;21.20;;;6.90;99.90;;;;;;5044364;28;20454;-70
2024/01/31 08:32:11;;;;;;;29.40;20.20;;;6.90;99.90;;;;;;5047231;28;20535;-69
2024/01/31 08:34:56;;;;;;;35.30;21.10;;;7.10;99.90;;;;;;5044194;28;20431;-70
2024/01/31 08:37:42;;;;;;;30.07;19.17;;;7.20;99.90;;;;;;5047498;28;20627;-70
2024/01/31 08:40:27;;;;;;;27.27;19.17;;;7.20;99.90;;;;;;5048312;28;20400;-70
2024/01/31 08:43:13;;;;;;;31.53;21.30;;;7.20;99.90;;;;;;5047030;28;20461;-70
2024/01/31 08:46:00;;;;;;;29.87;21.50;;;7.40;99.90;;;;;;5050955;28;20949;-69
2024/01/31 08:48:46;;;;;;;36.70;23.17;;;7.50;99.90;;;;;;5047602;28;20449;-70
2024/01/31 08:51:33;;;;;;;35.07;23.60;;;7.60;99.90;;;;;;5048293;28;20538;-70
2024/01/31 08:54:18;;;;;;;103.00;65.43;;;7.70;99.90;;;;;;5043463;28;20779;-70
2024/01/31 08:57:04;;;;;;;104.03;72.60;;;7.70;99.90;;;;;;5048790;28;20545;-71
2024/01/31 08:59:50;;;;;;;79.67;56.13;;;7.80;99.90;;;;;;5036662;28;20553;-70
2024/01/31 09:02:37;;;;;;;39.20;29.37;;;7.80;99.90;;;;;;5045563;28;20401;-70
2024/01/31 09:05:23;;;;;;;36.63;25.50;;;7.90;99.90;;;;;;5046545;28;20433;-71
2024/01/31 09:08:08;;;;;;;36.67;23.37;;;8.00;99.90;;;;;;5032422;28;20610;-71
2024/01/31 09:10:54;;;;;;;36.20;24.70;;;8.10;99.90;;;;;;5045013;28;20409;-71
2024/01/31 09:13:40;;;;;;;33.73;23.10;;;8.20;99.90;;;;;;5042194;28;20427;-70
2024/01/31 09:16:25;;;;;;;28.10;21.07;;;8.20;99.90;;;;;;5045944;28;20478;-70
2024/01/31 09:19:12;;;;;;;32.60;23.63;;;8.20;99.90;;;;;;5047956;28;20477;-69
2024/01/31 09:21:58;;;;;;;34.07;24.57;;;8.30;99.90;;;;;;5049337;28;20400;-70
2024/01/31 09:24:44;;;;;;;36.77;25.90;;;8.40;99.90;;;;;;5038807;28;20459;-70
2024/01/31 09:27:29;;;;;;;30.37;21.57;;;8.50;99.90;;;;;;5040479;28;21017;-70
2024/01/31 09:30:15;;;;;;;24.20;17.73;;;8.60;99.90;;;;;;5050061;28;20411;-70
2024/01/31 09:33:02;;;;;;;17.20;11.07;;;8.50;99.90;;;;;;5037369;28;20569;-70
2024/01/31 09:35:49;;;;;;;14.90;11.60;;;8.50;99.90;;;;;;5051609;28;20437;-70
2024/01/31 09:38:34;;;;;;;20.73;12.10;;;8.60;99.90;;;;;;5050165;28;20465;-70
2024/01/31 09:41:20;;;;;;;9.60;6.47;;;8.60;99.90;;;;;;5047765;28;20790;-70
2024/01/31 09:44:06;;;;;;;5.87;3.23;;;8.70;99.90;;;;;;5037428;28;20441;-70
2024/01/31 09:46:53;;;;;;;6.10;2.90;;;8.70;99.90;;;;;;5024931;28;20471;-70
2024/01/31 09:49:39;;;;;;;8.13;3.07;;;8.80;99.90;;;;;;5036960;28;20434;-70
2024/01/31 09:52:28;;;;;;;7.23;2.67;;;8.90;99.90;;;;;;5038511;28;20808;-70
2024/01/31 09:55:14;;;;;;;5.50;3.50;;;8.90;99.90;;;;;;5047929;28;20438;-70
2024/01/31 09:58:00;;;;;;;4.80;2.50;;;9.00;99.90;;;;;;5050474;28;20422;-70
2024/01/31 10:00:45;;;;;;;4.83;3.13;;;9.10;99.90;;;;;;5049779;28;20804;-70
2024/01/31 10:03:31;;;;;;;7.87;3.30;;;9.10;99.90;;;;;;5044375;28;20828;-70
2024/01/31 10:06:17;;;;;;;5.90;2.73;;;9.10;99.90;;;;;;5045727;28;20438;-70
2024/01/31 10:09:06;;;;;;;5.83;2.87;;;9.20;99.90;;;;;;5039428;28;20450;-70
2024/01/31 10:11:52;;;;;;;4.00;2.60;;;9.20;99.90;;;;;;5047834;28;20430;-70
2024/01/31 10:14:38;;;;;;;5.40;2.60;;;9.30;99.90;;;;;;5049858;28;20661;-71
2024/01/31 10:17:24;;;;;;;5.03;2.50;;;9.30;99.90;;;;;;5047106;28;20429;-71
2024/01/31 10:20:11;;;;;;;4.80;2.67;;;9.30;99.90;;;;;;5035176;28;20512;-70
2024/01/31 10:22:59;;;;;;;7.17;2.70;;;9.30;99.90;;;;;;5051611;28;20490;-70
2024/01/31 10:25:46;;;;;;;9.30;2.63;;;9.30;99.90;;;;;;5049411;28;20470;-70
2024/01/31 10:28:34;;;;;;;4.10;2.57;;;9.40;99.90;;;;;;5042137;28;20485;-70
2024/01/31 10:31:20;;;;;;;3.90;2.27;;;9.40;99.90;;;;;;5050288;28;20430;-70
2024/01/31 10:34:07;;;;;;;3.97;2.07;;;9.40;99.90;;;;;;5051539;28;20429;-70
2024/01/31 10:36:54;;;;;;;4.43;2.17;;;9.50;99.90;;;;;;5050947;28;20797;-70
2024/01/31 10:39:40;;;;;;;12.73;4.60;;;9.60;99.90;;;;;;5050089;28;20828;-70
2024/01/31 10:42:27;;;;;;;6.57;2.23;;;9.70;99.90;;;;;;5039393;28;20429;-70
2024/01/31 10:45:14;;;;;;;5.33;2.67;;;9.80;99.90;;;;;;5036623;28;20410;-70
2024/01/31 10:47:59;;;;;;;3.83;1.80;;;9.90;99.90;;;;;;5044622;28;20449;-71
2024/01/31 10:50:45;;;;;;;5.10;2.20;;;10.00;99.90;;;;;;5043280;28;20636;-70
2024/01/31 10:53:31;;;;;;;5.37;1.87;;;10.10;99.90;;;;;;5035381;28;20410;-70
2024/01/31 10:56:19;;;;;;;4.40;1.90;;;10.10;99.90;;;;;;5035441;28;20442;-70
2024/01/31 10:59:07;;;;;;;6.17;2.20;;;10.30;99.90;;;;;;5046559;28;21007;-70
2024/01/31 11:01:55;;;;;;;7.17;2.33;;;10.40;99.90;;;;;;5042157;28;20503;-70
2024/01/31 11:04:41;;;;;;;3.23;1.80;;;10.50;99.90;;;;;;5047462;28;20927;-70
2024/01/31 11:07:27;;;;;;;6.33;2.70;;;10.50;99.90;;;;;;5038944;28;20498;-71
2024/01/31 11:10:13;;;;;;;9.43;1.90;;;10.60;99.90;;;;;;5036845;28;20479;-70
2024/01/31 11:13:00;;;;;;;5.50;1.90;;;10.60;99.90;;;;;;5024117;28;20491;-70
2024/01/31 11:15:48;;;;;;;7.90;1.87;;;10.50;99.90;;;;;;5037613;28;20410;-70
2024/01/31 11:18:36;;;;;;;3.90;2.10;;;10.40;99.40;;;;;;5038646;28;21005;-70
2024/01/31 11:21:22;;;;;;;5.10;2.40;;;10.40;99.90;;;;;;5031039;28;20521;-70
2024/01/31 11:24:13;;;;;;;7.80;2.30;;;10.50;99.90;;;;;;5029958;28;20397;-70
2024/01/31 11:26:58;;;;;;;3.20;2.30;;;10.40;99.90;;;;;;5019821;28;20793;-70
2024/01/31 11:29:46;;;;;;;3.93;2.33;;;10.30;99.90;;;;;;5024346;28;20436;-70
2024/01/31 11:32:32;;;;;;;4.83;2.70;;;10.30;99.90;;;;;;5029896;28;20553;-70
2024/01/31 11:35:18;;;;;;;3.20;2.30;;;10.30;99.90;;;;;;5039348;28;21012;-70
2024/01/31 11:38:06;;;;;;;4.53;2.60;;;10.20;99.50;;;;;;5031243;28;20436;-71
2024/01/31 11:40:52;;;;;;;3.40;1.97;;;10.20;99.90;;;;;;5035054;28;20426;-70
2024/01/31 11:43:38;;;;;;;7.73;3.07;;;10.30;99.90;;;;;;5051958;28;21321;-71
2024/01/31 11:46:23;;;;;;;3.37;2.03;;;10.40;99.90;;;;;;5032084;28;20822;-70
2024/01/31 11:49:10;;;;;;;4.47;2.23;;;10.40;99.90;;;;;;5028078;28;20476;-70
2024/01/31 11:51:56;;;;;;;4.47;1.73;;;10.40;99.90;;;;;;5039392;28;20400;-70
2024/01/31 11:54:42;;;;;;;3.30;1.70;;;10.40;99.90;;;;;;5040478;28;20489;-71
2024/01/31 11:57:27;;;;;;;3.63;2.00;;;10.50;99.90;;;;;;5043916;28;20473;-70
2024/01/31 12:00:14;;;;;;;5.10;2.23;;;10.50;99.90;;;;;;5032976;28;20409;-70
2024/01/31 12:03:00;;;;;;;3.63;2.23;;;10.50;99.10;;;;;;5043003;28;20491;-70
2024/01/31 12:05:56;;;;;;;3.00;1.90;;;10.40;95.70;;;;;;5034407;28;20433;-70
2024/01/31 12:08:45;;;;;;;4.33;2.37;;;10.40;97.80;;;;;;5030760;28;20453;-70
2024/01/31 12:11:31;;;;;;;5.17;2.33;;;10.40;97.70;;;;;;5031355;28;20580;-71
2024/01/31 12:14:17;;;;;;;3.17;1.97;;;10.40;99.90;;;;;;5046722;28;20897;-71
2024/01/31 12:17:03;;;;;;;4.60;2.50;;;10.30;96.90;;;;;;5020525;28;20530;-70
2024/01/31 12:19:49;;;;;;;7.00;2.00;;;10.20;96.90;;;;;;5038316;28;20837;-70
2024/01/31 12:22:36;;;;;;;4.40;2.00;;;10.30;99.90;;;;;;5033522;28;20431;-70
2024/01/31 12:25:23;;;;;;;3.60;1.80;;;10.30;99.90;;;;;;5033922;28;20448;-70
2024/01/31 12:28:09;;;;;;;6.00;2.20;;;10.30;99.90;;;;;;5032275;28;21092;-70
2024/01/31 12:30:56;;;;;;;4.20;2.00;;;10.30;99.40;;;;;;5028488;28;20904;-70
2024/01/31 12:33:41;;;;;;;4.50;2.10;;;10.30;99.80;;;;;;5028109;28;20475;-70
2024/01/31 12:36:27;;;;;;;5.17;1.83;;;10.30;99.00;;;;;;5043238;28;20486;-70
2024/01/31 12:39:19;;;;;;;4.30;2.50;;;10.40;99.90;;;;;;5030686;28;20454;-70
2024/01/31 12:42:06;;;;;;;4.20;1.87;;;10.40;99.90;;;;;;5029482;28;20430;-70
2024/01/31 12:44:51;;;;;;;4.47;2.10;;;10.40;99.90;;;;;;5035646;28;20505;-70
2024/01/31 12:47:37;;;;;;;4.20;2.20;;;10.40;99.90;;;;;;5036211;28;20482;-70
2024/01/31 12:50:22;;;;;;;3.70;2.10;;;10.40;99.90;;;;;;5028088;28;20468;-70
2024/01/31 12:53:08;;;;;;;5.33;1.90;;;10.50;99.90;;;;;;5027065;28;20433;-71
2024/01/31 12:55:55;;;;;;;3.03;2.10;;;10.50;99.90;;;;;;5035865;28;20423;-70
2024/01/31 12:58:41;;;;;;;10.50;2.30;;;10.50;99.90;;;;;;5036457;28;20437;-71
2024/01/31 13:01:26;;;;;;;4.03;2.17;;;10.50;99.90;;;;;;5029367;28;20451;-70
2024/01/31 13:04:12;;;;;;;4.80;2.43;;;10.50;99.90;;;;;;5028431;28;20434;-70
2024/01/31 13:06:58;;;;;;;4.33;2.03;;;10.40;99.90;;;;;;5032080;28;20447;-70
2024/01/31 13:09:44;;;;;;;4.43;2.43;;;10.40;99.90;;;;;;5036151;28;20606;-70
2024/01/31 13:12:31;;;;;;;6.43;2.63;;;10.40;99.90;;;;;;5031610;28;20979;-71
2024/01/31 13:15:16;;;;;;;6.67;2.50;;;10.40;99.90;;;;;;5024810;28;20569;-70
2024/01/31 13:18:03;;;;;;;6.43;2.60;;;10.50;99.90;;;;;;5035747;28;20498;-70
2024/01/31 13:20:50;;;;;;;3.43;2.40;;;10.50;99.90;;;;;;5035110;28;20409;-70
2024/01/31 13:23:38;;;;;;;4.83;2.27;;;10.50;99.90;;;;;;5039806;28;20787;-70
2024/01/31 13:26:24;;;;;;;2.47;1.90;;;10.60;99.90;;;;;;5035866;28;21046;-70
2024/01/31 13:29:11;;;;;;;3.20;2.10;;;10.60;99.90;;;;;;5026508;28;20530;-70
2024/01/31 13:31:57;;;;;;;2.93;2.00;;;10.50;99.90;;;;;;5031965;28;20432;-70
2024/01/31 13:34:44;;;;;;;7.03;3.10;;;10.50;99.90;;;;;;5037116;28;20443;-70
2024/01/31 13:37:29;;;;;;;4.00;2.20;;;10.60;99.90;;;;;;5036198;28;20930;-70
2024/01/31 13:40:15;;;;;;;7.40;2.07;;;10.60;99.90;;;;;;5031152;28;20410;-70
2024/01/31 13:43:00;;;;;;;4.60;2.70;;;10.60;99.90;;;;;;5029247;28;20515;-70
2024/01/31 13:45:47;;;;;;;5.27;2.40;;;10.60;99.90;;;;;;5038273;28;20430;-70
2024/01/31 13:48:33;;;;;;;4.03;2.73;;;10.60;99.90;;;;;;5041194;28;20470;-70
2024/01/31 13:51:19;;;;;;;10.10;3.30;;;10.70;99.90;;;;;;5032113;28;20444;-70
2024/01/31 13:54:05;;;;;;;4.40;2.43;;;10.60;99.90;;;;;;5033119;28;20501;-70
2024/01/31 13:56:50;;;;;;;4.03;2.40;;;10.60;99.90;;;;;;5043145;28;20487;-70
2024/01/31 13:59:36;;;;;;;9.23;2.63;;;10.60;99.90;;;;;;5045311;28;20789;-71
2024/01/31 14:02:23;;;;;;;9.30;2.90;;;10.70;99.90;;;;;;5032338;28;21265;-70
2024/01/31 14:05:09;;;;;;;6.30;2.30;;;10.70;99.90;;;;;;5032424;28;20455;-70
2024/01/31 14:07:54;;;;;;;7.83;3.33;;;10.70;99.90;;;;;;5029420;28;20557;-70
2024/01/31 14:10:40;;;;;;;6.53;2.80;;;10.70;99.90;;;;;;5037854;28;20935;-70
2024/01/31 14:13:25;;;;;;;7.33;3.07;;;10.80;99.90;;;;;;5035446;28;20890;-70
2024/01/31 14:16:14;;;;;;;4.90;3.17;;;10.90;99.90;;;;;;5030876;28;20448;-70
2024/01/31 14:19:01;;;;;;;4.23;2.87;;;11.00;99.90;;;;;;5036287;28;20582;-70